sensor_id;sensor_type;location;lat;lon;timestamp;pressure;altitude;pressure_sealevel;temperature;humidity
46430;BME280;32131;53.454;-6.180;2023-02-26T09:42:09;103082.75;;;7.33;63.30
46430;BME280;32131;53.454;-6.180;2023-02-26T09:47:19;103092.06;;;7.71;62.57
46430;BME280;32131;53.454;-6.180;2023-02-26T09:49:53;103086.25;;;7.74;61.92
46430;BME280;32131;53.454;-6.180;2023-02-26T09:52:27;103077.34;;;7.68;61.65
46430;BME280;32131;53.454;-6.180;2023-02-26T09:54:59;103089.72;;;7.74;61.60
46430;BME280;32131;53.454;-6.180;2023-02-26T09:57:40;103081.91;;;7.86;61.33
46430;BME280;32131;53.454;-6.180;2023-02-26T10:00:21;103088.50;;;7.96;61.33
46430;BME280;32131;53.454;-6.180;2023-02-26T10:02:56;103095.72;;;8.01;61.58
46430;BME280;32131;53.454;-6.180;2023-02-26T10:05:34;103101.56;;;8.12;61.42
46430;BME280;32131;53.454;-6.180;2023-02-26T10:08:09;103108.69;;;8.16;61.36
46430;BME280;32131;53.454;-6.180;2023-02-26T10:10:49;103112.75;;;8.13;60.67
46430;BME280;32131;53.454;-6.180;2023-02-26T10:13:24;103117.19;;;8.15;60.52
46430;BME280;32131;53.454;-6.180;2023-02-26T10:15:57;103120.56;;;8.14;60.72
46430;BME280;32131;53.454;-6.180;2023-02-26T10:18:31;103129.88;;;8.26;61.13
46430;BME280;32131;53.454;-6.180;2023-02-26T10:21:05;103129.25;;;8.43;60.59
46430;BME280;32131;53.454;-6.180;2023-02-26T10:23:41;103127.50;;;8.71;60.11
46430;BME280;32131;53.454;-6.180;2023-02-26T10:26:15;103135.66;;;8.92;58.74
46430;BME280;32131;53.454;-6.180;2023-02-26T10:28:54;103139.22;;;9.09;58.84
46430;BME280;32131;53.454;-6.180;2023-02-26T10:31:33;103150.59;;;8.98;58.91
46430;BME280;32131;53.454;-6.180;2023-02-26T10:34:16;103156.41;;;8.80;58.48
46430;BME280;32131;53.454;-6.180;2023-02-26T10:36:49;103157.97;;;8.49;58.62
46430;BME280;32131;53.454;-6.180;2023-02-26T10:39:27;103160.34;;;8.33;59.09
46430;BME280;32131;53.454;-6.180;2023-02-26T10:42:08;103162.34;;;8.24;59.21
46430;BME280;32131;53.454;-6.180;2023-02-26T10:44:46;103169.25;;;8.11;59.99
46430;BME280;32131;53.454;-6.180;2023-02-26T10:47:21;103160.47;;;8.21;60.02
46430;BME280;32131;53.454;-6.180;2023-02-26T10:49:55;103163.59;;;8.44;60.27
46430;BME280;32131;53.454;-6.180;2023-02-26T10:52:27;103170.59;;;8.46;59.71
46430;BME280;32131;53.454;-6.180;2023-02-26T10:55:24;103159.72;;;8.37;59.35
46430;BME280;32131;53.454;-6.180;2023-02-26T10:57:58;103167.47;;;8.24;59.12
46430;BME280;32131;53.454;-6.180;2023-02-26T11:00:28;103156.69;;;8.16;59.35
46430;BME280;32131;53.454;-6.180;2023-02-26T11:02:59;103164.88;;;8.37;59.29
46430;BME280;32131;53.454;-6.180;2023-02-26T11:05:31;103162.50;;;8.54;58.80
46430;BME280;32131;53.454;-6.180;2023-02-26T11:08:03;103171.09;;;8.68;58.52
46430;BME280;32131;53.454;-6.180;2023-02-26T11:10:40;103164.88;;;8.64;58.74
46430;BME280;32131;53.454;-6.180;2023-02-26T11:13:09;103167.44;;;8.64;59.05
46430;BME280;32131;53.454;-6.180;2023-02-26T11:15:43;103168.34;;;8.51;59.44
46430;BME280;32131;53.454;-6.180;2023-02-26T11:18:16;103170.84;;;8.49;59.56
46430;BME280;32131;53.454;-6.180;2023-02-26T11:20:47;103166.06;;;8.56;59.57
46430;BME280;32131;53.454;-6.180;2023-02-26T11:23:19;103162.91;;;8.60;58.54
46430;BME280;32131;53.454;-6.180;2023-02-26T11:25:53;103166.44;;;8.62;58.47
46430;BME280;32131;53.454;-6.180;2023-02-26T11:28:28;103175.53;;;8.70;58.33
46430;BME280;32131;53.454;-6.180;2023-02-26T11:31:05;103179.69;;;8.81;57.75
46430;BME280;32131;53.454;-6.180;2023-02-26T11:33:36;103178.13;;;8.70;57.82
46430;BME280;32131;53.454;-6.180;2023-02-26T11:36:10;103185.25;;;8.74;58.54
46430;BME280;32131;53.454;-6.180;2023-02-26T11:38:40;103184.88;;;8.68;59.10
46430;BME280;32131;53.454;-6.180;2023-02-26T11:41:12;103178.59;;;9.06;58.74
46430;BME280;32131;53.454;-6.180;2023-02-26T11:43:42;103190.84;;;9.54;57.73
46430;BME280;32131;53.454;-6.180;2023-02-26T11:46:14;103190.06;;;9.55;56.81
46430;BME280;32131;53.454;-6.180;2023-02-26T11:48:45;103181.44;;;9.39;57.04
46430;BME280;32131;53.454;-6.180;2023-02-26T11:51:18;103182.56;;;9.44;57.36
46430;BME280;32131;53.454;-6.180;2023-02-26T11:53:49;103184.19;;;9.72;56.66
46430;BME280;32131;53.454;-6.180;2023-02-26T11:56:25;103184.00;;;9.99;56.31
46430;BME280;32131;53.454;-6.180;2023-02-26T11:58:54;103177.25;;;10.33;55.60
46430;BME280;32131;53.454;-6.180;2023-02-26T12:01:28;103174.63;;;10.63;54.67
46430;BME280;32131;53.454;-6.180;2023-02-26T12:04:01;103180.78;;;10.98;53.53
46430;BME280;32131;53.454;-6.180;2023-02-26T12:06:32;103177.63;;;11.37;52.59
46430;BME280;32131;53.454;-6.180;2023-02-26T12:09:01;103173.16;;;11.69;51.87
46430;BME280;32131;53.454;-6.180;2023-02-26T12:11:58;103170.72;;;11.37;51.13
46430;BME280;32131;53.454;-6.180;2023-02-26T12:15:08;103171.13;;;10.62;52.05
46430;BME280;32131;53.454;-6.180;2023-02-26T12:17:53;103174.81;;;10.04;53.26
46430;BME280;32131;53.454;-6.180;2023-02-26T12:20:29;103184.91;;;9.70;54.66
46430;BME280;32131;53.454;-6.180;2023-02-26T12:23:11;103181.47;;;9.69;55.24
46430;BME280;32131;53.454;-6.180;2023-02-26T12:26:02;103174.69;;;10.01;54.69
46430;BME280;32131;53.454;-6.180;2023-02-26T12:29:01;103166.69;;;10.28;54.10
46430;BME280;32131;53.454;-6.180;2023-02-26T12:35:07;103171.97;;;10.78;52.61
46430;BME280;32131;53.454;-6.180;2023-02-26T12:37:50;103169.16;;;10.90;52.08
46430;BME280;32131;53.454;-6.180;2023-02-26T12:40:43;103173.69;;;10.46;51.84
46430;BME280;32131;53.454;-6.180;2023-02-26T12:43:19;103170.03;;;10.11;52.79
46430;BME280;32131;53.454;-6.180;2023-02-26T12:45:53;103169.59;;;9.88;53.75
46430;BME280;32131;53.454;-6.180;2023-02-26T12:49:01;103158.38;;;10.02;53.84
46430;BME280;32131;53.454;-6.180;2023-02-26T12:51:46;103156.94;;;10.07;53.15
46430;BME280;32131;53.454;-6.180;2023-02-26T12:54:40;103164.34;;;10.48;53.10
46430;BME280;32131;53.454;-6.180;2023-02-26T13:00:51;103159.09;;;11.63;50.39
46430;BME280;32131;53.454;-6.180;2023-02-26T13:06:48;103158.34;;;12.01;49.38
46430;BME280;32131;53.454;-6.180;2023-02-26T13:09:32;103157.34;;;12.35;49.66
46430;BME280;32131;53.454;-6.180;2023-02-26T13:12:16;103154.41;;;12.84;48.62
46430;BME280;32131;53.454;-6.180;2023-02-26T13:14:53;103160.16;;;13.18;47.41
46430;BME280;32131;53.454;-6.180;2023-02-26T13:17:33;103163.13;;;13.26;47.16
46430;BME280;32131;53.454;-6.180;2023-02-26T13:20:11;103163.66;;;13.38;47.30
46430;BME280;32131;53.454;-6.180;2023-02-26T13:22:49;103162.16;;;13.64;47.02
46430;BME280;32131;53.454;-6.180;2023-02-26T13:25:32;103164.81;;;13.66;46.00
46430;BME280;32131;53.454;-6.180;2023-02-26T13:28:17;103162.53;;;13.52;45.96
46430;BME280;32131;53.454;-6.180;2023-02-26T13:30:49;103160.16;;;12.97;47.20
46430;BME280;32131;53.454;-6.180;2023-02-26T13:33:28;103169.34;;;12.33;48.18
46430;BME280;32131;53.454;-6.180;2023-02-26T13:35:59;103153.88;;;12.34;48.10
46430;BME280;32131;53.454;-6.180;2023-02-26T13:38:39;103167.22;;;12.62;47.71
46430;BME280;32131;53.454;-6.180;2023-02-26T13:41:12;103163.06;;;12.85;47.41
46430;BME280;32131;53.454;-6.180;2023-02-26T13:44:15;103156.72;;;12.58;47.98
46430;BME280;32131;53.454;-6.180;2023-02-26T13:47:17;103160.22;;;12.41;48.08
46430;BME280;32131;53.454;-6.180;2023-02-26T13:50:03;103154.88;;;12.18;48.77
46430;BME280;32131;53.454;-6.180;2023-02-26T13:52:47;103161.09;;;12.04;49.37
46430;BME280;32131;53.454;-6.180;2023-02-26T13:55:44;103159.56;;;11.73;49.37
46430;BME280;32131;53.454;-6.180;2023-02-26T13:58:34;103168.84;;;11.51;50.04
46430;BME280;32131;53.454;-6.180;2023-02-26T14:01:07;103161.03;;;11.50;49.80
46430;BME280;32131;53.454;-6.180;2023-02-26T14:03:43;103168.53;;;11.45;50.16
46430;BME280;32131;53.454;-6.180;2023-02-26T14:06:38;103170.31;;;11.29;49.88
46430;BME280;32131;53.454;-6.180;2023-02-26T14:09:34;103176.63;;;11.35;50.17
46430;BME280;32131;53.454;-6.180;2023-02-26T14:12:23;103171.16;;;11.28;50.53
46430;BME280;32131;53.454;-6.180;2023-02-26T14:18:10;103170.81;;;11.22;50.93
46430;BME280;32131;53.454;-6.180;2023-02-26T14:20:46;103171.50;;;11.18;50.78
46430;BME280;32131;53.454;-6.180;2023-02-26T14:23:34;103180.53;;;10.93;51.07
46430;BME280;32131;53.454;-6.180;2023-02-26T14:26:05;103181.19;;;11.06;51.07
46430;BME280;32131;53.454;-6.180;2023-02-26T14:28:56;103180.84;;;11.16;51.53
46430;BME280;32131;53.454;-6.180;2023-02-26T14:31:25;103177.50;;;11.35;51.38
46430;BME280;32131;53.454;-6.180;2023-02-26T14:34:10;103177.91;;;11.43;50.97
46430;BME280;32131;53.454;-6.180;2023-02-26T14:36:44;103178.97;;;11.46;50.91
46430;BME280;32131;53.454;-6.180;2023-02-26T14:39:28;103176.63;;;11.35;50.95
46430;BME280;32131;53.454;-6.180;2023-02-26T14:42:01;103177.38;;;11.32;50.68
46430;BME280;32131;53.454;-6.180;2023-02-26T14:44:36;103169.00;;;11.38;50.44
46430;BME280;32131;53.454;-6.180;2023-02-26T14:47:06;103176.25;;;11.61;49.70
46430;BME280;32131;53.454;-6.180;2023-02-26T14:49:37;103169.75;;;12.04;48.96
46430;BME280;32131;53.454;-6.180;2023-02-26T14:52:25;103167.72;;;12.35;48.12
46430;BME280;32131;53.454;-6.180;2023-02-26T14:55:28;103164.75;;;12.27;48.25
46430;BME280;32131;53.454;-6.180;2023-02-26T14:58:10;103168.53;;;11.98;48.98
46430;BME280;32131;53.454;-6.180;2023-02-26T15:00:51;103174.56;;;11.80;49.55
46430;BME280;32131;53.454;-6.180;2023-02-26T15:03:34;103180.84;;;11.67;49.54
46430;BME280;32131;53.454;-6.180;2023-02-26T15:06:41;103180.97;;;11.52;49.15
46430;BME280;32131;53.454;-6.180;2023-02-26T15:09:17;103182.81;;;11.55;49.03
46430;BME280;32131;53.454;-6.180;2023-02-26T15:12:00;103185.38;;;11.37;49.46
46430;BME280;32131;53.454;-6.180;2023-02-26T15:14:48;103191.34;;;11.36;50.05
46430;BME280;32131;53.454;-6.180;2023-02-26T15:17:34;103184.44;;;11.53;50.26
46430;BME280;32131;53.454;-6.180;2023-02-26T15:20:17;103184.84;;;11.60;50.43
46430;BME280;32131;53.454;-6.180;2023-02-26T15:23:02;103180.59;;;11.79;50.16
46430;BME280;32131;53.454;-6.180;2023-02-26T15:25:34;103182.06;;;11.92;48.87
46430;BME280;32131;53.454;-6.180;2023-02-26T15:28:05;103180.34;;;11.92;48.77
46430;BME280;32131;53.454;-6.180;2023-02-26T15:30:35;103188.28;;;11.95;48.95
46430;BME280;32131;53.454;-6.180;2023-02-26T15:33:11;103183.56;;;12.05;49.44
46430;BME280;32131;53.454;-6.180;2023-02-26T15:35:42;103177.31;;;11.83;50.00
46430;BME280;32131;53.454;-6.180;2023-02-26T15:38:11;103182.53;;;11.48;50.28
46430;BME280;32131;53.454;-6.180;2023-02-26T15:40:39;103183.13;;;11.26;50.56
46430;BME280;32131;53.454;-6.180;2023-02-26T15:43:09;103183.03;;;11.08;51.12
46430;BME280;32131;53.454;-6.180;2023-02-26T15:45:42;103186.69;;;11.12;51.03
46430;BME280;32131;53.454;-6.180;2023-02-26T15:48:15;103182.69;;;11.35;50.80
46430;BME280;32131;53.454;-6.180;2023-02-26T15:50:48;103181.72;;;11.50;49.92
46430;BME280;32131;53.454;-6.180;2023-02-26T15:53:28;103181.56;;;11.64;49.57
46430;BME280;32131;53.454;-6.180;2023-02-26T15:56:02;103185.47;;;11.56;49.31
46430;BME280;32131;53.454;-6.180;2023-02-26T15:58:37;103190.88;;;11.10;49.60
46430;BME280;32131;53.454;-6.180;2023-02-26T16:01:05;103188.38;;;11.11;49.34
46430;BME280;32131;53.454;-6.180;2023-02-26T16:03:36;103187.78;;;11.33;49.32
46430;BME280;32131;53.454;-6.180;2023-02-26T16:06:08;103196.03;;;11.43;49.51
46430;BME280;32131;53.454;-6.180;2023-02-26T16:08:38;103186.06;;;11.34;48.95
46430;BME280;32131;53.454;-6.180;2023-02-26T16:11:10;103191.38;;;11.19;48.71
46430;BME280;32131;53.454;-6.180;2023-02-26T16:13:41;103191.19;;;11.16;48.91
46430;BME280;32131;53.454;-6.180;2023-02-26T16:16:12;103188.28;;;11.43;48.52
46430;BME280;32131;53.454;-6.180;2023-02-26T16:18:44;103198.63;;;11.43;49.30
46430;BME280;32131;53.454;-6.180;2023-02-26T16:21:21;103196.28;;;11.31;50.24
46430;BME280;32131;53.454;-6.180;2023-02-26T16:23:52;103198.72;;;11.11;50.68
46430;BME280;32131;53.454;-6.180;2023-02-26T16:26:27;103198.66;;;10.93;50.75
46430;BME280;32131;53.454;-6.180;2023-02-26T16:29:00;103192.66;;;10.78;50.47
46430;BME280;32131;53.454;-6.180;2023-02-26T16:31:30;103193.47;;;10.77;50.45
46430;BME280;32131;53.454;-6.180;2023-02-26T16:34:22;103197.31;;;10.68;51.05
46430;BME280;32131;53.454;-6.180;2023-02-26T16:36:52;103191.41;;;10.54;51.56
46430;BME280;32131;53.454;-6.180;2023-02-26T16:39:23;103185.84;;;10.32;51.68
46430;BME280;32131;53.454;-6.180;2023-02-26T16:42:08;103196.00;;;10.14;52.57
46430;BME280;32131;53.454;-6.180;2023-02-26T16:44:46;103200.47;;;10.01;53.38
46430;BME280;32131;53.454;-6.180;2023-02-26T16:47:17;103209.81;;;9.99;53.59
46430;BME280;32131;53.454;-6.180;2023-02-26T16:49:48;103215.19;;;10.02;53.28
46430;BME280;32131;53.454;-6.180;2023-02-26T16:52:19;103219.16;;;9.97;53.48
46430;BME280;32131;53.454;-6.180;2023-02-26T16:54:54;103211.53;;;9.99;53.71
46430;BME280;32131;53.454;-6.180;2023-02-26T16:57:29;103208.84;;;9.97;53.58
46430;BME280;32131;53.454;-6.180;2023-02-26T17:00:02;103220.50;;;9.90;53.79
46430;BME280;32131;53.454;-6.180;2023-02-26T17:02:36;103217.81;;;9.74;54.19
46430;BME280;32131;53.454;-6.180;2023-02-26T17:05:16;103217.19;;;9.63;54.25
46430;BME280;32131;53.454;-6.180;2023-02-26T17:07:52;103225.09;;;9.51;54.74
46430;BME280;32131;53.454;-6.180;2023-02-26T17:10:31;103225.50;;;9.29;55.27
46430;BME280;32131;53.454;-6.180;2023-02-26T17:13:09;103222.41;;;9.06;56.17
46430;BME280;32131;53.454;-6.180;2023-02-26T17:15:40;103218.53;;;8.85;56.75
46430;BME280;32131;53.454;-6.180;2023-02-26T17:18:09;103220.94;;;8.68;57.74
46430;BME280;32131;53.454;-6.180;2023-02-26T17:20:39;103220.84;;;8.53;58.48
46430;BME280;32131;53.454;-6.180;2023-02-26T17:23:13;103219.88;;;8.51;58.49
46430;BME280;32131;53.454;-6.180;2023-02-26T17:25:44;103223.91;;;8.61;58.46
46430;BME280;32131;53.454;-6.180;2023-02-26T17:28:18;103219.16;;;8.67;58.28
46430;BME280;32131;53.454;-6.180;2023-02-26T17:30:47;103223.91;;;8.74;58.16
46430;BME280;32131;53.454;-6.180;2023-02-26T17:33:16;103217.47;;;8.68;58.37
46430;BME280;32131;53.454;-6.180;2023-02-26T17:35:46;103219.16;;;8.67;58.67
46430;BME280;32131;53.454;-6.180;2023-02-26T17:38:15;103222.31;;;8.63;59.16
46430;BME280;32131;53.454;-6.180;2023-02-26T17:40:44;103229.16;;;8.62;59.76
46430;BME280;32131;53.454;-6.180;2023-02-26T17:43:14;103225.09;;;8.53;59.57
46430;BME280;32131;53.454;-6.180;2023-02-26T17:45:44;103224.59;;;8.45;59.46
46430;BME280;32131;53.454;-6.180;2023-02-26T17:48:14;103231.44;;;8.31;60.21
46430;BME280;32131;53.454;-6.180;2023-02-26T17:50:43;103228.13;;;8.07;61.25
46430;BME280;32131;53.454;-6.180;2023-02-26T17:53:15;103233.06;;;7.90;61.79
46430;BME280;32131;53.454;-6.180;2023-02-26T17:55:44;103243.44;;;7.78;62.00
46430;BME280;32131;53.454;-6.180;2023-02-26T17:58:15;103242.63;;;7.66;62.42
46430;BME280;32131;53.454;-6.180;2023-02-26T18:00:44;103238.41;;;7.54;62.68
46430;BME280;32131;53.454;-6.180;2023-02-26T18:03:16;103241.16;;;7.44;63.40
46430;BME280;32131;53.454;-6.180;2023-02-26T18:05:44;103238.94;;;7.37;63.46
46430;BME280;32131;53.454;-6.180;2023-02-26T18:08:19;103233.31;;;7.29;63.42
46430;BME280;32131;53.454;-6.180;2023-02-26T18:10:49;103233.53;;;7.20;63.71
46430;BME280;32131;53.454;-6.180;2023-02-26T18:13:18;103234.78;;;7.14;64.37
46430;BME280;32131;53.454;-6.180;2023-02-26T18:15:47;103226.56;;;7.06;65.18
46430;BME280;32131;53.454;-6.180;2023-02-26T18:18:16;103229.69;;;7.02;65.10
46430;BME280;32131;53.454;-6.180;2023-02-26T18:20:47;103224.81;;;6.93;65.35
46430;BME280;32131;53.454;-6.180;2023-02-26T18:23:17;103226.16;;;6.88;65.73
46430;BME280;32131;53.454;-6.180;2023-02-26T18:25:48;103226.16;;;6.88;65.85
46430;BME280;32131;53.454;-6.180;2023-02-26T18:28:20;103218.00;;;6.82;66.06
46430;BME280;32131;53.454;-6.180;2023-02-26T18:30:48;103216.13;;;6.79;66.51
46430;BME280;32131;53.454;-6.180;2023-02-26T18:33:19;103218.47;;;6.76;66.53
46430;BME280;32131;53.454;-6.180;2023-02-26T18:35:50;103225.97;;;6.73;66.73
46430;BME280;32131;53.454;-6.180;2023-02-26T18:38:25;103225.75;;;6.70;67.05
46430;BME280;32131;53.454;-6.180;2023-02-26T18:40:54;103232.44;;;6.68;67.43
46430;BME280;32131;53.454;-6.180;2023-02-26T18:43:24;103228.66;;;6.63;67.51
46430;BME280;32131;53.454;-6.180;2023-02-26T18:45:54;103238.84;;;6.61;67.26
46430;BME280;32131;53.454;-6.180;2023-02-26T18:48:27;103240.28;;;6.57;67.20
46430;BME280;32131;53.454;-6.180;2023-02-26T18:50:57;103252.88;;;6.54;67.45
46430;BME280;32131;53.454;-6.180;2023-02-26T18:53:27;103255.22;;;6.51;68.00
46430;BME280;32131;53.454;-6.180;2023-02-26T18:55:56;103262.91;;;6.51;67.93
46430;BME280;32131;53.454;-6.180;2023-02-26T18:58:25;103261.72;;;6.46;68.46
46430;BME280;32131;53.454;-6.180;2023-02-26T19:00:55;103270.09;;;6.43;68.80
46430;BME280;32131;53.454;-6.180;2023-02-26T19:03:25;103268.19;;;6.41;68.93
46430;BME280;32131;53.454;-6.180;2023-02-26T19:05:57;103274.88;;;6.39;69.11
46430;BME280;32131;53.454;-6.180;2023-02-26T19:08:37;103264.38;;;6.36;69.41
46430;BME280;32131;53.454;-6.180;2023-02-26T19:11:06;103272.75;;;6.33;69.77
46430;BME280;32131;53.454;-6.180;2023-02-26T19:13:35;103266.41;;;6.28;69.97
46430;BME280;32131;53.454;-6.180;2023-02-26T19:16:11;103274.88;;;6.27;70.44
46430;BME280;32131;53.454;-6.180;2023-02-26T19:18:59;103263.34;;;6.22;70.49
46430;BME280;32131;53.454;-6.180;2023-02-26T19:21:44;103261.72;;;6.22;70.81
46430;BME280;32131;53.454;-6.180;2023-02-26T19:24:22;103275.56;;;6.24;71.24
46430;BME280;32131;53.454;-6.180;2023-02-26T19:26:56;103279.78;;;6.24;71.68
46430;BME280;32131;53.454;-6.180;2023-02-26T19:29:35;103273.53;;;6.20;72.13
46430;BME280;32131;53.454;-6.180;2023-02-26T19:32:07;103278.41;;;6.17;72.58
46430;BME280;32131;53.454;-6.180;2023-02-26T19:34:44;103271.19;;;6.11;72.34
46430;BME280;32131;53.454;-6.180;2023-02-26T19:37:13;103273.50;;;6.08;71.99
46430;BME280;32131;53.454;-6.180;2023-02-26T19:39:48;103277.75;;;6.08;71.89
46430;BME280;32131;53.454;-6.180;2023-02-26T19:42:32;103279.75;;;6.12;71.97
46430;BME280;32131;53.454;-6.180;2023-02-26T19:45:12;103271.72;;;6.07;72.26
46430;BME280;32131;53.454;-6.180;2023-02-26T19:47:46;103285.56;;;6.09;72.63
46430;BME280;32131;53.454;-6.180;2023-02-26T19:50:32;103283.09;;;6.11;72.70
46430;BME280;32131;53.454;-6.180;2023-02-26T19:53:12;103277.75;;;6.08;73.00
46430;BME280;32131;53.454;-6.180;2023-02-26T19:55:47;103270.84;;;6.07;72.96
46430;BME280;32131;53.454;-6.180;2023-02-26T19:58:18;103276.50;;;6.03;72.66
46430;BME280;32131;53.454;-6.180;2023-02-26T20:00:47;103277.03;;;5.98;72.67
46430;BME280;32131;53.454;-6.180;2023-02-26T20:03:21;103282.16;;;5.98;72.73
46430;BME280;32131;53.454;-6.180;2023-02-26T20:05:52;103277.72;;;5.96;73.19
46430;BME280;32131;53.454;-6.180;2023-02-26T20:08:23;103278.13;;;5.90;73.57
46430;BME280;32131;53.454;-6.180;2023-02-26T20:10:58;103283.25;;;5.90;73.95
46430;BME280;32131;53.454;-6.180;2023-02-26T20:13:30;103276.09;;;5.86;74.28
46430;BME280;32131;53.454;-6.180;2023-02-26T20:16:08;103288.16;;;5.87;74.20
46430;BME280;32131;53.454;-6.180;2023-02-26T20:18:37;103290.59;;;5.86;74.08
46430;BME280;32131;53.454;-6.180;2023-02-26T20:21:09;103292.50;;;5.88;74.57
46430;BME280;32131;53.454;-6.180;2023-02-26T20:23:46;103297.63;;;5.88;74.67
46430;BME280;32131;53.454;-6.180;2023-02-26T20:26:19;103288.91;;;5.86;74.81
46430;BME280;32131;53.454;-6.180;2023-02-26T20:28:56;103289.69;;;5.85;75.06
46430;BME280;32131;53.454;-6.180;2023-02-26T20:31:25;103294.97;;;5.87;75.52
46430;BME280;32131;53.454;-6.180;2023-02-26T20:33:58;103296.41;;;5.83;75.58
46430;BME280;32131;53.454;-6.180;2023-02-26T20:36:53;103294.59;;;5.82;75.35
46430;BME280;32131;53.454;-6.180;2023-02-26T20:39:26;103293.03;;;5.84;75.73
46430;BME280;32131;53.454;-6.180;2023-02-26T20:42:06;103298.16;;;5.84;75.95
46430;BME280;32131;53.454;-6.180;2023-02-26T20:44:58;103293.84;;;5.83;76.33
46430;BME280;32131;53.454;-6.180;2023-02-26T20:47:35;103302.66;;;5.87;76.32
46430;BME280;32131;53.454;-6.180;2023-02-26T20:50:05;103302.19;;;5.92;76.46
46430;BME280;32131;53.454;-6.180;2023-02-26T20:52:40;103304.50;;;6.00;76.62
46430;BME280;32131;53.454;-6.180;2023-02-26T20:55:21;103306.41;;;6.02;76.81
46430;BME280;32131;53.454;-6.180;2023-02-26T20:58:05;103310.31;;;6.09;76.53
46430;BME280;32131;53.454;-6.180;2023-02-26T21:00:49;103305.66;;;6.15;76.03
46430;BME280;32131;53.454;-6.180;2023-02-26T21:03:30;103314.03;;;6.24;76.01
46430;BME280;32131;53.454;-6.180;2023-02-26T21:06:04;103314.38;;;6.29;76.14
46430;BME280;32131;53.454;-6.180;2023-02-26T21:08:36;103322.72;;;6.38;75.81
46430;BME280;32131;53.454;-6.180;2023-02-26T21:11:10;103308.59;;;6.43;75.34
46430;BME280;32131;53.454;-6.180;2023-02-26T21:13:45;103321.31;;;6.54;75.29
46430;BME280;32131;53.454;-6.180;2023-02-26T21:16:14;103313.97;;;6.58;74.67
46430;BME280;32131;53.454;-6.180;2023-02-26T21:18:43;103313.28;;;6.61;74.57
46430;BME280;32131;53.454;-6.180;2023-02-26T21:21:12;103321.19;;;6.64;74.35
46430;BME280;32131;53.454;-6.180;2023-02-26T21:23:43;103329.13;;;6.67;74.26
46430;BME280;32131;53.454;-6.180;2023-02-26T21:26:22;103328.69;;;6.73;74.09
46430;BME280;32131;53.454;-6.180;2023-02-26T21:29:20;103323.09;;;6.79;74.04
46430;BME280;32131;53.454;-6.180;2023-02-26T21:32:01;103319.09;;;6.82;74.03
46430;BME280;32131;53.454;-6.180;2023-02-26T21:34:36;103315.72;;;6.83;74.03
46430;BME280;32131;53.454;-6.180;2023-02-26T21:37:28;103316.84;;;6.87;73.75
46430;BME280;32131;53.454;-6.180;2023-02-26T21:40:02;103324.66;;;6.88;73.16
46430;BME280;32131;53.454;-6.180;2023-02-26T21:42:38;103324.06;;;6.92;73.17
46430;BME280;32131;53.454;-6.180;2023-02-26T21:45:20;103326.97;;;6.97;73.10
46430;BME280;32131;53.454;-6.180;2023-02-26T21:47:55;103332.25;;;6.99;72.89
46430;BME280;32131;53.454;-6.180;2023-02-26T21:50:33;103327.09;;;6.99;72.76
46430;BME280;32131;53.454;-6.180;2023-02-26T21:53:15;103334.91;;;7.00;72.86
46430;BME280;32131;53.454;-6.180;2023-02-26T21:55:53;103328.75;;;6.98;72.31
46430;BME280;32131;53.454;-6.180;2023-02-26T21:58:28;103338.38;;;7.01;71.82
46430;BME280;32131;53.454;-6.180;2023-02-26T22:00:59;103325.53;;;7.01;71.39
46430;BME280;32131;53.454;-6.180;2023-02-26T22:03:48;103341.84;;;7.01;71.71
46430;BME280;32131;53.454;-6.180;2023-02-26T22:06:34;103333.13;;;6.99;72.51
46430;BME280;32131;53.454;-6.180;2023-02-26T22:09:17;103334.03;;;7.00;72.33
46430;BME280;32131;53.454;-6.180;2023-02-26T22:11:49;103333.25;;;7.01;71.31
46430;BME280;32131;53.454;-6.180;2023-02-26T22:14:29;103334.81;;;6.99;71.50
46430;BME280;32131;53.454;-6.180;2023-02-26T22:17:11;103339.16;;;7.00;72.11
46430;BME280;32131;53.454;-6.180;2023-02-26T22:20:18;103322.84;;;6.99;72.42
46430;BME280;32131;53.454;-6.180;2023-02-26T22:22:57;103322.75;;;6.98;72.47
46430;BME280;32131;53.454;-6.180;2023-02-26T22:25:36;103322.75;;;6.98;72.49
46430;BME280;32131;53.454;-6.180;2023-02-26T22:28:48;103318.38;;;6.97;71.99
46430;BME280;32131;53.454;-6.180;2023-02-26T22:31:33;103321.06;;;6.86;71.70
46430;BME280;32131;53.454;-6.180;2023-02-26T22:34:54;103319.97;;;6.71;72.13
46430;BME280;32131;53.454;-6.180;2023-02-26T22:37:35;103320.06;;;6.60;72.70
46430;BME280;32131;53.454;-6.180;2023-02-26T22:40:06;103327.78;;;6.60;72.45
46430;BME280;32131;53.454;-6.180;2023-02-26T22:42:46;103330.13;;;6.57;71.58
46430;BME280;32131;53.454;-6.180;2023-02-26T22:45:16;103335.59;;;6.50;71.15
46430;BME280;32131;53.454;-6.180;2023-02-26T22:47:53;103331.34;;;6.39;70.72
46430;BME280;32131;53.454;-6.180;2023-02-26T22:50:24;103331.59;;;6.42;70.49
46430;BME280;32131;53.454;-6.180;2023-02-26T22:53:00;103322.09;;;6.41;70.54
46430;BME280;32131;53.454;-6.180;2023-02-26T22:55:43;103335.81;;;6.41;70.76
46430;BME280;32131;53.454;-6.180;2023-02-26T22:58:37;103346.63;;;6.37;71.18
46430;BME280;32131;53.454;-6.180;2023-02-26T23:01:07;103344.50;;;6.32;71.81
46430;BME280;32131;53.454;-6.180;2023-02-26T23:03:36;103348.53;;;6.40;72.65
46430;BME280;32131;53.454;-6.180;2023-02-26T23:06:24;103350.31;;;6.41;72.60
46430;BME280;32131;53.454;-6.180;2023-02-26T23:09:04;103356.09;;;6.38;72.65
46430;BME280;32131;53.454;-6.180;2023-02-26T23:12:00;103349.31;;;6.39;72.66
46430;BME280;32131;53.454;-6.180;2023-02-26T23:14:41;103353.84;;;6.31;73.09
46430;BME280;32131;53.454;-6.180;2023-02-26T23:17:41;103364.78;;;6.28;74.10
46430;BME280;32131;53.454;-6.180;2023-02-26T23:23:23;103360.56;;;6.29;74.50
46430;BME280;32131;53.454;-6.180;2023-02-26T23:26:07;103354.41;;;6.27;74.78
46430;BME280;32131;53.454;-6.180;2023-02-26T23:29:23;103357.41;;;6.21;75.29
46430;BME280;32131;53.454;-6.180;2023-02-26T23:32:04;103370.34;;;6.23;75.30
46430;BME280;32131;53.454;-6.180;2023-02-26T23:34:43;103376.75;;;6.28;75.49
46430;BME280;32131;53.454;-6.180;2023-02-26T23:40:18;103384.97;;;6.24;75.31
46430;BME280;32131;53.454;-6.180;2023-02-26T23:42:57;103378.94;;;6.11;75.40